Time;durP1;ratioP1;P1;durP2;ratioP2;P2;SDS_P1;SDS_P2;PMS_P1;PMS_P2;Temp;Humidity;BMP_temperature;BMP_pressure;BME280_temperature;BME280_humidity;BME280_pressure;Samples;Min_cycle;Max_cycle;Signal;HPM_P1;HPM_P2
2019/07/22 00:00:35;;;;;;;9.249999;8.35;;;;;;;17.02;96.83984;95980.7;;;;
2019/07/22 00:01:37;;;;;;;9.249999;8.35;;;;;;;17.02;96.83984;95980.7;;;;
2019/07/22 00:02:38;;;;;;;9.25;8.35;;;;;;;16.9;97.37402;95977.32;;;;
2019/07/22 00:03:39;;;;;;;9.25;8.35;;;;;;;16.9;97.37402;95977.32;;;;
2019/07/22 00:04:41;;;;;;;9.25;8.35;;;;;;;16.9;97.37402;95977.32;;;;
2019/07/22 00:05:42;;;;;;;9.25;8.35;;;;;;;16.9;97.37402;95977.32;;;;
2019/07/22 00:06:43;;;;;;;9.25;8.35;;;;;;;16.9;97.37402;95977.32;;;;
2019/07/22 00:07:44;;;;;;;9.25;8.35;;;;;;;16.9;97.37402;95977.32;;;;
2019/07/22 00:08:45;;;;;;;9.25;8.35;;;;;;;16.9;97.37402;95977.32;;;;
2019/07/22 00:09:46;;;;;;;9.25;8.35;;;;;;;16.9;97.37402;95977.32;;;;
2019/07/22 00:10:47;;;;;;;9.25;8.35;;;;;;;16.9;97.37402;95977.32;;;;
2019/07/22 00:11:48;;;;;;;9.25;8.35;;;;;;;16.9;97.37402;95977.32;;;;
2019/07/22 00:12:49;;;;;;;9.25;8.35;;;;;;;16.9;97.37402;95977.32;;;;
2019/07/22 00:13:51;;;;;;;9.65;8.75;;;;;;;16.72;97.87402;95964.87;;;;
2019/07/22 00:14:52;;;;;;;9.65;8.75;;;;;;;16.72;97.87402;95964.87;;;;
2019/07/22 00:15:53;;;;;;;9.65;8.75;;;;;;;16.72;97.87402;95964.87;;;;
2019/07/22 00:16:54;;;;;;;9.65;8.75;;;;;;;16.72;97.87402;95964.87;;;;
2019/07/22 00:17:55;;;;;;;9.65;8.75;;;;;;;16.72;97.87402;95964.87;;;;
2019/07/22 00:18:56;;;;;;;9.65;8.75;;;;;;;16.72;97.87402;95964.87;;;;
2019/07/22 00:19:58;;;;;;;9.65;8.75;;;;;;;16.72;97.87402;95964.87;;;;
2019/07/22 00:20:59;;;;;;;9.65;8.75;;;;;;;16.72;97.87402;95964.87;;;;
2019/07/22 00:22:00;;;;;;;9.65;8.75;;;;;;;16.72;97.87402;95964.87;;;;
2019/07/22 00:23:01;;;;;;;9.65;8.75;;;;;;;16.72;97.87402;95964.87;;;;
2019/07/22 00:24:02;;;;;;;10.55;9.45;;;;;;;16.62;98.46484;95961.24;;;;
2019/07/22 00:25:03;;;;;;;10.55;9.45;;;;;;;16.62;98.46484;95961.24;;;;
2019/07/22 00:26:06;;;;;;;10.55;9.45;;;;;;;16.62;98.46484;95961.24;;;;
2019/07/22 00:27:07;;;;;;;10.55;9.45;;;;;;;16.62;98.46484;95961.24;;;;
2019/07/22 00:28:08;;;;;;;10.55;9.45;;;;;;;16.62;98.46484;95961.24;;;;
2019/07/22 00:29:09;;;;;;;10.55;9.45;;;;;;;16.62;98.46484;95961.24;;;;
2019/07/22 00:30:10;;;;;;;10.55;9.45;;;;;;;16.62;98.46484;95961.24;;;;
2019/07/22 00:31:12;;;;;;;10.55;9.45;;;;;;;16.62;98.46484;95961.24;;;;
2019/07/22 00:32:13;;;;;;;10.55;9.45;;;;;;;16.62;98.46484;95961.24;;;;
2019/07/22 00:33:14;;;;;;;10.55;9.45;;;;;;;16.62;98.46484;95961.24;;;;
2019/07/22 00:34:15;;;;;;;10.3;9.200001;;;;;;;16.47;98.88574;95953.3;;;;
2019/07/22 00:35:16;;;;;;;10.3;9.200001;;;;;;;16.47;98.88574;95953.3;;;;
2019/07/22 00:36:17;;;;;;;10.3;9.200001;;;;;;;16.47;98.88574;95953.3;;;;
2019/07/22 00:37:18;;;;;;;10.3;9.200001;;;;;;;16.47;98.88574;95953.3;;;;
2019/07/22 00:38:19;;;;;;;10.3;9.200001;;;;;;;16.47;98.88574;95953.3;;;;
2019/07/22 00:39:20;;;;;;;10.3;9.200001;;;;;;;16.47;98.88574;95953.3;;;;
2019/07/22 00:40:21;;;;;;;10.3;9.200001;;;;;;;16.47;98.88574;95953.3;;;;
2019/07/22 00:41:23;;;;;;;10.3;9.200001;;;;;;;16.47;98.88574;95953.3;;;;
2019/07/22 00:42:24;;;;;;;10.3;9.200001;;;;;;;16.47;98.88574;95953.3;;;;
2019/07/22 00:43:25;;;;;;;10.3;9.200001;;;;;;;16.47;98.88574;95953.3;;;;
2019/07/22 00:44:26;;;;;;;10.3;9.200001;;;;;;;16.47;98.88574;95953.3;;;;
2019/07/22 00:45:27;;;;;;;10.4;9.399999;;;;;;;16.4;99.4502;95961.24;;;;
2019/07/22 00:46:28;;;;;;;10.4;9.399999;;;;;;;16.4;99.4502;95961.24;;;;
2019/07/22 00:47:29;;;;;;;10.4;9.399999;;;;;;;16.4;99.4502;95961.24;;;;
2019/07/22 00:48:30;;;;;;;10.4;9.399999;;;;;;;16.4;99.4502;95961.24;;;;
2019/07/22 00:49:32;;;;;;;10.4;9.399999;;;;;;;16.4;99.4502;95961.24;;;;
2019/07/22 00:50:33;;;;;;;10.4;9.399999;;;;;;;16.4;99.4502;95961.24;;;;
2019/07/22 00:51:34;;;;;;;10.4;9.399999;;;;;;;16.4;99.4502;95961.24;;;;
2019/07/22 00:52:35;;;;;;;10.4;9.399999;;;;;;;16.4;99.4502;95961.24;;;;
2019/07/22 00:53:36;;;;;;;10.4;9.399999;;;;;;;16.4;99.4502;95961.24;;;;
2019/07/22 00:54:37;;;;;;;10.4;9.399999;;;;;;;16.4;99.4502;95961.24;;;;
2019/07/22 00:55:38;;;;;;;10.75;9.65;;;;;;;16.28;99.87695;95954.13;;;;
2019/07/22 00:56:39;;;;;;;10.75;9.65;;;;;;;16.28;99.87695;95954.13;;;;
2019/07/22 00:57:40;;;;;;;10.75;9.65;;;;;;;16.28;99.87695;95954.13;;;;
2019/07/22 00:58:42;;;;;;;10.75;9.65;;;;;;;16.28;99.87695;95954.13;;;;
2019/07/22 00:59:43;;;;;;;10.75;9.65;;;;;;;16.28;99.87695;95954.13;;;;
2019/07/22 01:00:44;;;;;;;10.75;9.65;;;;;;;16.28;99.87695;95954.13;;;;
2019/07/22 01:01:45;;;;;;;10.75;9.65;;;;;;;16.28;99.87695;95954.13;;;;
2019/07/22 01:02:47;;;;;;;10.75;9.65;;;;;;;16.28;99.87695;95954.13;;;;
2019/07/22 01:03:48;;;;;;;10.75;9.65;;;;;;;16.28;99.87695;95954.13;;;;
2019/07/22 01:04:49;;;;;;;10.75;9.65;;;;;;;16.28;99.87695;95954.13;;;;
2019/07/22 01:05:50;;;;;;;10.75;9.65;;;;;;;16.28;99.87695;95954.13;;;;
2019/07/22 01:06:51;;;;;;;11.35;10.25;;;;;;;16.29;100;95946.25;;;;
2019/07/22 01:07:53;;;;;;;11.35;10.25;;;;;;;16.29;100;95946.25;;;;
2019/07/22 01:08:54;;;;;;;11.35;10.25;;;;;;;16.29;100;95946.25;;;;
2019/07/22 01:09:55;;;;;;;11.35;10.25;;;;;;;16.29;100;95946.25;;;;
2019/07/22 01:10:57;;;;;;;11.35;10.25;;;;;;;16.29;100;95946.25;;;;
2019/07/22 01:11:59;;;;;;;11.35;10.25;;;;;;;16.29;100;95946.25;;;;
2019/07/22 01:13:00;;;;;;;11.35;10.25;;;;;;;16.29;100;95946.25;;;;
2019/07/22 01:14:01;;;;;;;11.35;10.25;;;;;;;16.29;100;95946.25;;;;
2019/07/22 01:15:03;;;;;;;11.35;10.25;;;;;;;16.29;100;95946.25;;;;
2019/07/22 01:16:05;;;;;;;11.35;10.25;;;;;;;16.29;100;95946.25;;;;
2019/07/22 01:17:06;;;;;;;11.45;10.35;;;;;;;16.28;100;95950.04;;;;
2019/07/22 01:18:07;;;;;;;11.45;10.35;;;;;;;16.28;100;95950.04;;;;
2019/07/22 01:19:09;;;;;;;11.45;10.35;;;;;;;16.28;100;95950.04;;;;
2019/07/22 01:20:10;;;;;;;11.45;10.35;;;;;;;16.28;100;95950.04;;;;
2019/07/22 01:21:13;;;;;;;11.45;10.35;;;;;;;16.28;100;95950.04;;;;
2019/07/22 01:22:15;;;;;;;11.45;10.35;;;;;;;16.28;100;95950.04;;;;
2019/07/22 01:23:16;;;;;;;11.45;10.35;;;;;;;16.28;100;95950.04;;;;
2019/07/22 01:24:18;;;;;;;11.45;10.35;;;;;;;16.28;100;95950.04;;;;
2019/07/22 01:25:19;;;;;;;11.45;10.35;;;;;;;16.28;100;95950.04;;;;
2019/07/22 01:26:20;;;;;;;11.45;10.35;;;;;;;16.28;100;95950.04;;;;
2019/07/22 01:27:21;;;;;;;11.3;10.2;;;;;;;16.3;100;95942.02;;;;
2019/07/22 01:28:22;;;;;;;11.3;10.2;;;;;;;16.3;100;95942.02;;;;
2019/07/22 01:29:24;;;;;;;11.3;10.2;;;;;;;16.3;100;95942.02;;;;
2019/07/22 01:30:25;;;;;;;11.3;10.2;;;;;;;16.3;100;95942.02;;;;
2019/07/22 01:31:49;;;;;;;11.3;10.2;;;;;;;16.3;100;95942.02;;;;
2019/07/22 01:32:50;;;;;;;11.3;10.2;;;;;;;16.3;100;95942.02;;;;
2019/07/22 01:33:51;;;;;;;11.3;10.2;;;;;;;16.3;100;95942.02;;;;
2019/07/22 01:34:52;;;;;;;11.3;10.2;;;;;;;16.3;100;95942.02;;;;
2019/07/22 01:35:54;;;;;;;11.3;10.2;;;;;;;16.3;100;95942.02;;;;
2019/07/22 01:36:55;;;;;;;11.3;10.2;;;;;;;16.3;100;95942.02;;;;
2019/07/22 01:37:56;;;;;;;12.55;11.2;;;;;;;16.22;100;95946.99;;;;
2019/07/22 01:38:57;;;;;;;12.55;11.2;;;;;;;16.22;100;95946.99;;;;
2019/07/22 01:39:58;;;;;;;12.55;11.2;;;;;;;16.22;100;95946.99;;;;
2019/07/22 01:41:00;;;;;;;12.55;11.2;;;;;;;16.22;100;95946.99;;;;
2019/07/22 01:42:01;;;;;;;12.55;11.2;;;;;;;16.22;100;95946.99;;;;
2019/07/22 01:43:02;;;;;;;12.55;11.2;;;;;;;16.22;100;95946.99;;;;
2019/07/22 01:44:03;;;;;;;12.55;11.2;;;;;;;16.22;100;95946.99;;;;
2019/07/22 01:45:05;;;;;;;12.55;11.2;;;;;;;16.22;100;95946.99;;;;
2019/07/22 01:46:06;;;;;;;12.55;11.2;;;;;;;16.22;100;95946.99;;;;
2019/07/22 01:47:08;;;;;;;12.55;11.2;;;;;;;16.22;100;95946.99;;;;
2019/07/22 01:48:09;;;;;;;12.55;11.2;;;;;;;16.22;100;95946.99;;;;
2019/07/22 01:49:10;;;;;;;13.85;11.75;;;;;;;16.21;100;95946.27;;;;
2019/07/22 01:50:11;;;;;;;13.85;11.75;;;;;;;16.21;100;95946.27;;;;
2019/07/22 01:51:13;;;;;;;13.85;11.75;;;;;;;16.21;100;95946.27;;;;
2019/07/22 01:52:14;;;;;;;13.85;11.75;;;;;;;16.21;100;95946.27;;;;
2019/07/22 01:53:15;;;;;;;13.85;11.75;;;;;;;16.21;100;95946.27;;;;
2019/07/22 01:54:16;;;;;;;13.85;11.75;;;;;;;16.21;100;95946.27;;;;
2019/07/22 01:55:18;;;;;;;13.85;11.75;;;;;;;16.21;100;95946.27;;;;
2019/07/22 01:56:19;;;;;;;13.85;11.75;;;;;;;16.21;100;95946.27;;;;
2019/07/22 01:57:21;;;;;;;13.85;11.75;;;;;;;16.21;100;95946.27;;;;
2019/07/22 01:58:22;;;;;;;13.85;11.75;;;;;;;16.21;100;95946.27;;;;
2019/07/22 01:59:23;;;;;;;12.45;11.2;;;;;;;16.19;100;95949.26;;;;
2019/07/22 02:00:24;;;;;;;12.45;11.2;;;;;;;16.19;100;95949.26;;;;
2019/07/22 02:01:26;;;;;;;12.45;11.2;;;;;;;16.19;100;95949.26;;;;
2019/07/22 02:02:27;;;;;;;12.45;11.2;;;;;;;16.19;100;95949.26;;;;
2019/07/22 02:03:28;;;;;;;12.45;11.2;;;;;;;16.19;100;95949.26;;;;
2019/07/22 02:04:29;;;;;;;12.45;11.2;;;;;;;16.19;100;95949.26;;;;
2019/07/22 02:05:30;;;;;;;12.45;11.2;;;;;;;16.19;100;95949.26;;;;
2019/07/22 02:06:31;;;;;;;12.45;11.2;;;;;;;16.19;100;95949.26;;;;
2019/07/22 02:07:33;;;;;;;12.45;11.2;;;;;;;16.19;100;95949.26;;;;
2019/07/22 02:08:34;;;;;;;12.45;11.2;;;;;;;16.19;100;95949.26;;;;
2019/07/22 02:09:35;;;;;;;12.45;11.2;;;;;;;16.19;100;95949.26;;;;
2019/07/22 02:10:36;;;;;;;12.8;11.6;;;;;;;16.25;100;95950.56;;;;
2019/07/22 02:11:38;;;;;;;12.8;11.6;;;;;;;16.25;100;95950.56;;;;
2019/07/22 02:12:39;;;;;;;12.8;11.6;;;;;;;16.25;100;95950.56;;;;
2019/07/22 02:13:40;;;;;;;12.8;11.6;;;;;;;16.25;100;95950.56;;;;
2019/07/22 02:14:41;;;;;;;12.8;11.6;;;;;;;16.25;100;95950.56;;;;
2019/07/22 02:15:42;;;;;;;12.8;11.6;;;;;;;16.25;100;95950.56;;;;
2019/07/22 02:16:44;;;;;;;12.8;11.6;;;;;;;16.25;100;95950.56;;;;
2019/07/22 02:17:45;;;;;;;12.8;11.6;;;;;;;16.25;100;95950.56;;;;
2019/07/22 02:18:46;;;;;;;12.8;11.6;;;;;;;16.25;100;95950.56;;;;
2019/07/22 02:19:47;;;;;;;12.8;11.6;;;;;;;16.25;100;95950.56;;;;
2019/07/22 02:20:48;;;;;;;13.5;12.1;;;;;;;16.18;100;95946.37;;;;
2019/07/22 02:21:50;;;;;;;13.5;12.1;;;;;;;16.18;100;95946.37;;;;
2019/07/22 02:22:51;;;;;;;13.5;12.1;;;;;;;16.18;100;95946.37;;;;
2019/07/22 02:23:52;;;;;;;13.5;12.1;;;;;;;16.18;100;95946.37;;;;
2019/07/22 02:24:53;;;;;;;13.5;12.1;;;;;;;16.18;100;95946.37;;;;
2019/07/22 02:25:54;;;;;;;13.5;12.1;;;;;;;16.18;100;95946.37;;;;
2019/07/22 02:26:55;;;;;;;13.5;12.1;;;;;;;16.18;100;95946.37;;;;
2019/07/22 02:27:57;;;;;;;13.5;12.1;;;;;;;16.18;100;95946.37;;;;
2019/07/22 02:28:58;;;;;;;13.5;12.1;;;;;;;16.18;100;95946.37;;;;
2019/07/22 02:29:59;;;;;;;13.5;12.1;;;;;;;16.18;100;95946.37;;;;
2019/07/22 02:31:00;;;;;;;13.5;12.15;;;;;;;16.22;100;95957.06;;;;
2019/07/22 02:32:01;;;;;;;13.5;12.15;;;;;;;16.22;100;95957.06;;;;
2019/07/22 02:33:02;;;;;;;13.5;12.15;;;;;;;16.22;100;95957.06;;;;
2019/07/22 02:34:04;;;;;;;13.5;12.15;;;;;;;16.22;100;95957.06;;;;
2019/07/22 02:35:05;;;;;;;13.5;12.15;;;;;;;16.22;100;95957.06;;;;
2019/07/22 02:36:07;;;;;;;13.5;12.15;;;;;;;16.22;100;95957.06;;;;
2019/07/22 02:37:08;;;;;;;13.5;12.15;;;;;;;16.22;100;95957.06;;;;
2019/07/22 02:38:10;;;;;;;13.5;12.15;;;;;;;16.22;100;95957.06;;;;
2019/07/22 02:39:11;;;;;;;13.5;12.15;;;;;;;16.22;100;95957.06;;;;
2019/07/22 02:40:12;;;;;;;13.5;12.15;;;;;;;16.22;100;95957.06;;;;
2019/07/22 02:41:16;;;;;;;13.5;12.15;;;;;;;16.22;100;95957.06;;;;
2019/07/22 02:42:17;;;;;;;14.4;12.9;;;;;;;16.18;100;95963.56;;;;
2019/07/22 02:43:19;;;;;;;14.4;12.9;;;;;;;16.18;100;95963.56;;;;
2019/07/22 02:44:20;;;;;;;14.4;12.9;;;;;;;16.18;100;95963.56;;;;
2019/07/22 02:45:21;;;;;;;14.4;12.9;;;;;;;16.18;100;95963.56;;;;
2019/07/22 02:46:34;;;;;;;14.4;12.9;;;;;;;16.18;100;95963.56;;;;
2019/07/22 02:47:35;;;;;;;14.4;12.9;;;;;;;16.18;100;95963.56;;;;
2019/07/22 02:48:36;;;;;;;14.4;12.9;;;;;;;16.18;100;95963.56;;;;
2019/07/22 02:49:37;;;;;;;14.4;12.9;;;;;;;16.18;100;95963.56;;;;
2019/07/22 02:50:38;;;;;;;14.4;12.9;;;;;;;16.18;100;95963.56;;;;
2019/07/22 02:51:40;;;;;;;14.4;12.9;;;;;;;16.18;100;95963.56;;;;
2019/07/22 02:52:41;;;;;;;14.15;12.45;;;;;;;16.19;100;95973.36;;;;
2019/07/22 02:53:42;;;;;;;14.15;12.45;;;;;;;16.19;100;95973.36;;;;
2019/07/22 02:54:43;;;;;;;14.15;12.45;;;;;;;16.19;100;95973.36;;;;
2019/07/22 02:55:44;;;;;;;14.15;12.45;;;;;;;16.19;100;95973.36;;;;
2019/07/22 02:56:45;;;;;;;14.15;12.45;;;;;;;16.19;100;95973.36;;;;
2019/07/22 02:57:46;;;;;;;14.15;12.45;;;;;;;16.19;100;95973.36;;;;
2019/07/22 02:58:47;;;;;;;14.15;12.45;;;;;;;16.19;100;95973.36;;;;
2019/07/22 02:59:48;;;;;;;14.15;12.45;;;;;;;16.19;100;95973.36;;;;
2019/07/22 03:00:49;;;;;;;14.15;12.45;;;;;;;16.19;100;95973.36;;;;
2019/07/22 03:01:50;;;;;;;14.15;12.45;;;;;;;16.19;100;95973.36;;;;
2019/07/22 03:02:52;;;;;;;14.35;12.85;;;;;;;16.12;100;95971.94;;;;
2019/07/22 03:03:53;;;;;;;14.35;12.85;;;;;;;16.12;100;95971.94;;;;
2019/07/22 03:04:54;;;;;;;14.35;12.85;;;;;;;16.12;100;95971.94;;;;
2019/07/22 03:05:55;;;;;;;14.35;12.85;;;;;;;16.12;100;95971.94;;;;
2019/07/22 03:06:56;;;;;;;14.35;12.85;;;;;;;16.12;100;95971.94;;;;
2019/07/22 03:07:57;;;;;;;14.35;12.85;;;;;;;16.12;100;95971.94;;;;
2019/07/22 03:08:58;;;;;;;14.35;12.85;;;;;;;16.12;100;95971.94;;;;
2019/07/22 03:09:59;;;;;;;14.35;12.85;;;;;;;16.12;100;95971.94;;;;
2019/07/22 03:11:00;;;;;;;14.35;12.85;;;;;;;16.12;100;95971.94;;;;
2019/07/22 03:12:01;;;;;;;14.35;12.85;;;;;;;16.12;100;95971.94;;;;
2019/07/22 03:13:03;;;;;;;14.35;12.85;;;;;;;16.12;100;95971.94;;;;
2019/07/22 03:14:04;;;;;;;13.25;11.9;;;;;;;16.09;100;95976.92;;;;
2019/07/22 03:15:06;;;;;;;13.25;11.9;;;;;;;16.09;100;95976.92;;;;
2019/07/22 03:16:07;;;;;;;13.25;11.9;;;;;;;16.09;100;95976.92;;;;
2019/07/22 03:17:08;;;;;;;13.25;11.9;;;;;;;16.09;100;95976.92;;;;
2019/07/22 03:18:09;;;;;;;13.25;11.9;;;;;;;16.09;100;95976.92;;;;
2019/07/22 03:19:10;;;;;;;13.25;11.9;;;;;;;16.09;100;95976.92;;;;
2019/07/22 03:20:12;;;;;;;13.25;11.9;;;;;;;16.09;100;95976.92;;;;
2019/07/22 03:21:13;;;;;;;13.25;11.9;;;;;;;16.09;100;95976.92;;;;
2019/07/22 03:22:14;;;;;;;13.25;11.9;;;;;;;16.09;100;95976.92;;;;
2019/07/22 03:23:15;;;;;;;13.25;11.9;;;;;;;16.09;100;95976.92;;;;
2019/07/22 03:24:16;;;;;;;14.6;13.15;;;;;;;15.99;100;95982.64;;;;
2019/07/22 03:25:17;;;;;;;14.6;13.15;;;;;;;15.99;100;95982.64;;;;
2019/07/22 03:26:18;;;;;;;14.6;13.15;;;;;;;15.99;100;95982.64;;;;
2019/07/22 03:27:20;;;;;;;14.6;13.15;;;;;;;15.99;100;95982.64;;;;
2019/07/22 03:28:21;;;;;;;14.6;13.15;;;;;;;15.99;100;95982.64;;;;
2019/07/22 03:29:22;;;;;;;14.6;13.15;;;;;;;15.99;100;95982.64;;;;
2019/07/22 03:30:23;;;;;;;14.6;13.15;;;;;;;15.99;100;95982.64;;;;
2019/07/22 03:31:24;;;;;;;14.6;13.15;;;;;;;15.99;100;95982.64;;;;
2019/07/22 03:32:25;;;;;;;14.6;13.15;;;;;;;15.99;100;95982.64;;;;
2019/07/22 03:33:26;;;;;;;14.6;13.15;;;;;;;15.99;100;95982.64;;;;
2019/07/22 03:34:27;;;;;;;14.25;12.85;;;;;;;15.99;100;95976.81;;;;
2019/07/22 03:35:28;;;;;;;14.25;12.85;;;;;;;15.99;100;95976.81;;;;
2019/07/22 03:36:29;;;;;;;14.25;12.85;;;;;;;15.99;100;95976.81;;;;
2019/07/22 03:37:31;;;;;;;14.25;12.85;;;;;;;15.99;100;95976.81;;;;
2019/07/22 03:38:32;;;;;;;14.25;12.85;;;;;;;15.99;100;95976.81;;;;
2019/07/22 03:39:33;;;;;;;14.25;12.85;;;;;;;15.99;100;95976.81;;;;
2019/07/22 03:40:34;;;;;;;14.25;12.85;;;;;;;15.99;100;95976.81;;;;
2019/07/22 03:41:35;;;;;;;14.25;12.85;;;;;;;15.99;100;95976.81;;;;
2019/07/22 03:42:36;;;;;;;14.25;12.85;;;;;;;15.99;100;95976.81;;;;
2019/07/22 03:43:37;;;;;;;14.25;12.85;;;;;;;15.99;100;95976.81;;;;
2019/07/22 03:44:38;;;;;;;14.25;12.85;;;;;;;15.99;100;95976.81;;;;
2019/07/22 03:45:39;;;;;;;14;12.7;;;;;;;15.9;100;95983.2;;;;
2019/07/22 03:46:41;;;;;;;14;12.7;;;;;;;15.9;100;95983.2;;;;
2019/07/22 03:47:42;;;;;;;14;12.7;;;;;;;15.9;100;95983.2;;;;
2019/07/22 03:48:43;;;;;;;14;12.7;;;;;;;15.9;100;95983.2;;;;
2019/07/22 03:49:44;;;;;;;14;12.7;;;;;;;15.9;100;95983.2;;;;
2019/07/22 03:50:45;;;;;;;14;12.7;;;;;;;15.9;100;95983.2;;;;
2019/07/22 03:51:46;;;;;;;14;12.7;;;;;;;15.9;100;95983.2;;;;
2019/07/22 03:52:47;;;;;;;14;12.7;;;;;;;15.9;100;95983.2;;;;
2019/07/22 03:53:48;;;;;;;14;12.7;;;;;;;15.9;100;95983.2;;;;
2019/07/22 03:54:50;;;;;;;14;12.7;;;;;;;15.9;100;95983.2;;;;
2019/07/22 03:55:51;;;;;;;14.85;13.35;;;;;;;15.93;100;95995.09;;;;
2019/07/22 03:56:52;;;;;;;14.85;13.35;;;;;;;15.93;100;95995.09;;;;
2019/07/22 03:57:53;;;;;;;14.85;13.35;;;;;;;15.93;100;95995.09;;;;
2019/07/22 03:58:54;;;;;;;14.85;13.35;;;;;;;15.93;100;95995.09;;;;
2019/07/22 03:59:55;;;;;;;14.85;13.35;;;;;;;15.93;100;95995.09;;;;
2019/07/22 04:00:56;;;;;;;14.85;13.35;;;;;;;15.93;100;95995.09;;;;
2019/07/22 04:01:58;;;;;;;14.85;13.35;;;;;;;15.93;100;95995.09;;;;
2019/07/22 04:02:59;;;;;;;14.85;13.35;;;;;;;15.93;100;95995.09;;;;
2019/07/22 04:04:00;;;;;;;14.85;13.35;;;;;;;15.93;100;95995.09;;;;
2019/07/22 04:05:01;;;;;;;14.85;13.35;;;;;;;15.93;100;95995.09;;;;
2019/07/22 04:06:03;;;;;;;14.85;13.35;;;;;;;15.93;100;95995.09;;;;
2019/07/22 04:07:04;;;;;;;14.95;13.55;;;;;;;15.97;100;95989.43;;;;
2019/07/22 04:08:05;;;;;;;14.95;13.55;;;;;;;15.97;100;95989.43;;;;
2019/07/22 04:09:06;;;;;;;14.95;13.55;;;;;;;15.97;100;95989.43;;;;
2019/07/22 04:10:07;;;;;;;14.95;13.55;;;;;;;15.97;100;95989.43;;;;
2019/07/22 04:11:09;;;;;;;14.95;13.55;;;;;;;15.97;100;95989.43;;;;
2019/07/22 04:12:10;;;;;;;14.95;13.55;;;;;;;15.97;100;95989.43;;;;
2019/07/22 04:13:11;;;;;;;14.95;13.55;;;;;;;15.97;100;95989.43;;;;
2019/07/22 04:14:12;;;;;;;14.95;13.55;;;;;;;15.97;100;95989.43;;;;
2019/07/22 04:15:13;;;;;;;14.95;13.55;;;;;;;15.97;100;95989.43;;;;
2019/07/22 04:16:15;;;;;;;14.95;13.55;;;;;;;15.97;100;95989.43;;;;
2019/07/22 04:17:16;;;;;;;14.55;13.2;;;;;;;16.14;100;96001.5;;;;
2019/07/22 04:18:17;;;;;;;14.55;13.2;;;;;;;16.14;100;96001.5;;;;
2019/07/22 04:19:19;;;;;;;14.55;13.2;;;;;;;16.14;100;96001.5;;;;
2019/07/22 04:20:20;;;;;;;14.55;13.2;;;;;;;16.14;100;96001.5;;;;
2019/07/22 04:21:21;;;;;;;14.55;13.2;;;;;;;16.14;100;96001.5;;;;
2019/07/22 04:22:22;;;;;;;14.55;13.2;;;;;;;16.14;100;96001.5;;;;
2019/07/22 04:23:23;;;;;;;14.55;13.2;;;;;;;16.14;100;96001.5;;;;
2019/07/22 04:24:24;;;;;;;14.55;13.2;;;;;;;16.14;100;96001.5;;;;
2019/07/22 04:25:25;;;;;;;14.55;13.2;;;;;;;16.14;100;96001.5;;;;
2019/07/22 04:26:26;;;;;;;14.55;13.2;;;;;;;16.14;100;96001.5;;;;
2019/07/22 04:27:27;;;;;;;14.55;13.2;;;;;;;16.14;100;96001.5;;;;
2019/07/22 04:28:28;;;;;;;13.1;11.9;;;;;;;16.32;100;95995.32;;;;
2019/07/22 04:29:30;;;;;;;13.1;11.9;;;;;;;16.32;100;95995.32;;;;
2019/07/22 04:30:31;;;;;;;13.1;11.9;;;;;;;16.32;100;95995.32;;;;
2019/07/22 04:31:32;;;;;;;13.1;11.9;;;;;;;16.32;100;95995.32;;;;
2019/07/22 04:32:33;;;;;;;13.1;11.9;;;;;;;16.32;100;95995.32;;;;
2019/07/22 04:33:34;;;;;;;13.1;11.9;;;;;;;16.32;100;95995.32;;;;
2019/07/22 04:34:35;;;;;;;13.1;11.9;;;;;;;16.32;100;95995.32;;;;
2019/07/22 04:35:36;;;;;;;13.1;11.9;;;;;;;16.32;100;95995.32;;;;
2019/07/22 04:36:37;;;;;;;13.1;11.9;;;;;;;16.32;100;95995.32;;;;
2019/07/22 04:37:38;;;;;;;13.1;11.9;;;;;;;16.32;100;95995.32;;;;
2019/07/22 04:38:39;;;;;;;11.15;10.15;;;;;;;16.62;100;96002.13;;;;
2019/07/22 04:39:40;;;;;;;11.15;10.15;;;;;;;16.62;100;96002.13;;;;
2019/07/22 04:40:42;;;;;;;11.15;10.15;;;;;;;16.62;100;96002.13;;;;
2019/07/22 04:41:43;;;;;;;11.15;10.15;;;;;;;16.62;100;96002.13;;;;
2019/07/22 04:42:44;;;;;;;11.15;10.15;;;;;;;16.62;100;96002.13;;;;
2019/07/22 04:43:45;;;;;;;11.15;10.15;;;;;;;16.62;100;96002.13;;;;
2019/07/22 04:44:46;;;;;;;11.15;10.15;;;;;;;16.62;100;96002.13;;;;
2019/07/22 04:45:47;;;;;;;11.15;10.15;;;;;;;16.62;100;96002.13;;;;
2019/07/22 04:46:48;;;;;;;11.15;10.15;;;;;;;16.62;100;96002.13;;;;
2019/07/22 04:47:49;;;;;;;11.15;10.15;;;;;;;16.62;100;96002.13;;;;
2019/07/22 04:48:51;;;;;;;11.15;10.1;;;;;;;16.94;100;96007.11;;;;
2019/07/22 04:49:52;;;;;;;11.15;10.1;;;;;;;16.94;100;96007.11;;;;
2019/07/22 04:50:53;;;;;;;11.15;10.1;;;;;;;16.94;100;96007.11;;;;
2019/07/22 04:51:54;;;;;;;11.15;10.1;;;;;;;16.94;100;96007.11;;;;
2019/07/22 04:52:55;;;;;;;11.15;10.1;;;;;;;16.94;100;96007.11;;;;
2019/07/22 04:53:56;;;;;;;11.15;10.1;;;;;;;16.94;100;96007.11;;;;
2019/07/22 04:54:57;;;;;;;11.15;10.1;;;;;;;16.94;100;96007.11;;;;
2019/07/22 04:55:58;;;;;;;11.15;10.1;;;;;;;16.94;100;96007.11;;;;
2019/07/22 04:56:59;;;;;;;11.15;10.1;;;;;;;16.94;100;96007.11;;;;
2019/07/22 04:58:00;;;;;;;11.15;10.1;;;;;;;16.94;100;96007.11;;;;
2019/07/22 04:59:02;;;;;;;11.15;10.1;;;;;;;16.94;100;96007.11;;;;
2019/07/22 05:00:03;;;;;;;10.95;9.85;;;;;;;17.36;100;96013.48;;;;
2019/07/22 05:01:04;;;;;;;10.95;9.85;;;;;;;17.36;100;96013.48;;;;
2019/07/22 05:02:05;;;;;;;10.95;9.85;;;;;;;17.36;100;96013.48;;;;
2019/07/22 05:03:07;;;;;;;10.95;9.85;;;;;;;17.36;100;96013.48;;;;
2019/07/22 05:04:08;;;;;;;10.95;9.85;;;;;;;17.36;100;96013.48;;;;
2019/07/22 05:05:09;;;;;;;10.95;9.85;;;;;;;17.36;100;96013.48;;;;
2019/07/22 05:06:10;;;;;;;10.95;9.85;;;;;;;17.36;100;96013.48;;;;
2019/07/22 05:07:11;;;;;;;10.95;9.85;;;;;;;17.36;100;96013.48;;;;
2019/07/22 05:08:12;;;;;;;10.95;9.85;;;;;;;17.36;100;96013.48;;;;
2019/07/22 05:09:14;;;;;;;10.95;9.85;;;;;;;17.36;100;96013.48;;;;
2019/07/22 05:10:15;;;;;;;10.85;9.299999;;;;;;;17.73;100;96013.95;;;;
2019/07/22 05:11:17;;;;;;;10.85;9.299999;;;;;;;17.73;100;96013.95;;;;
2019/07/22 05:12:18;;;;;;;10.85;9.299999;;;;;;;17.73;100;96013.95;;;;
2019/07/22 05:13:19;;;;;;;10.85;9.299999;;;;;;;17.73;100;96013.95;;;;
2019/07/22 05:14:20;;;;;;;10.85;9.299999;;;;;;;17.73;100;96013.95;;;;
2019/07/22 05:15:21;;;;;;;10.85;9.299999;;;;;;;17.73;100;96013.95;;;;
2019/07/22 05:16:23;;;;;;;10.85;9.299999;;;;;;;17.73;100;96013.95;;;;
2019/07/22 05:17:24;;;;;;;10.85;9.299999;;;;;;;17.73;100;96013.95;;;;
2019/07/22 05:18:25;;;;;;;10.85;9.299999;;;;;;;17.73;100;96013.95;;;;
2019/07/22 05:19:26;;;;;;;10.85;9.299999;;;;;;;17.73;100;96013.95;;;;
2019/07/22 05:20:27;;;;;;;10.85;9.299999;;;;;;;17.73;100;96013.95;;;;
2019/07/22 05:21:28;;;;;;;9.65;8.749998;;;;;;;18.21;100;96003.3;;;;
2019/07/22 05:22:30;;;;;;;9.65;8.749998;;;;;;;18.21;100;96003.3;;;;
2019/07/22 05:23:31;;;;;;;9.65;8.749998;;;;;;;18.21;100;96003.3;;;;
2019/07/22 05:24:32;;;;;;;9.65;8.749998;;;;;;;18.21;100;96003.3;;;;
2019/07/22 05:25:33;;;;;;;9.65;8.749998;;;;;;;18.21;100;96003.3;;;;
2019/07/22 05:26:34;;;;;;;9.65;8.749998;;;;;;;18.21;100;96003.3;;;;
2019/07/22 05:27:35;;;;;;;9.65;8.749998;;;;;;;18.21;100;96003.3;;;;
2019/07/22 05:28:36;;;;;;;9.65;8.749998;;;;;;;18.21;100;96003.3;;;;
2019/07/22 05:29:37;;;;;;;9.65;8.749998;;;;;;;18.21;100;96003.3;;;;
2019/07/22 05:30:38;;;;;;;9.65;8.749998;;;;;;;18.21;100;96003.3;;;;
2019/07/22 05:31:39;;;;;;;9.15;8.35;;;;;;;18.65;100;96008.73;;;;
2019/07/22 05:32:41;;;;;;;9.15;8.35;;;;;;;18.65;100;96008.73;;;;
2019/07/22 05:33:42;;;;;;;9.15;8.35;;;;;;;18.65;100;96008.73;;;;
2019/07/22 05:34:43;;;;;;;9.15;8.35;;;;;;;18.65;100;96008.73;;;;
2019/07/22 05:35:44;;;;;;;9.15;8.35;;;;;;;18.65;100;96008.73;;;;
2019/07/22 05:36:45;;;;;;;9.15;8.35;;;;;;;18.65;100;96008.73;;;;
2019/07/22 05:37:46;;;;;;;9.15;8.35;;;;;;;18.65;100;96008.73;;;;
2019/07/22 05:38:47;;;;;;;9.15;8.35;;;;;;;18.65;100;96008.73;;;;
2019/07/22 05:39:48;;;;;;;9.15;8.35;;;;;;;18.65;100;96008.73;;;;
2019/07/22 05:40:49;;;;;;;9.15;8.35;;;;;;;18.65;100;96008.73;;;;
2019/07/22 05:41:50;;;;;;;9.1;8.299998;;;;;;;19.12;100;96010.74;;;;
2019/07/22 05:42:52;;;;;;;9.1;8.299998;;;;;;;19.12;100;96010.74;;;;
2019/07/22 05:43:53;;;;;;;9.1;8.299998;;;;;;;19.12;100;96010.74;;;;
2019/07/22 05:44:54;;;;;;;9.1;8.299998;;;;;;;19.12;100;96010.74;;;;
2019/07/22 05:45:55;;;;;;;9.1;8.299998;;;;;;;19.12;100;96010.74;;;;
2019/07/22 05:46:56;;;;;;;9.1;8.299998;;;;;;;19.12;100;96010.74;;;;
2019/07/22 05:47:57;;;;;;;9.1;8.299998;;;;;;;19.12;100;96010.74;;;;
2019/07/22 05:48:58;;;;;;;9.1;8.299998;;;;;;;19.12;100;96010.74;;;;
2019/07/22 05:49:59;;;;;;;9.1;8.299998;;;;;;;19.12;100;96010.74;;;;
2019/07/22 05:51:01;;;;;;;9.1;8.299998;;;;;;;19.12;100;96010.74;;;;
2019/07/22 05:52:02;;;;;;;9.1;8.299998;;;;;;;19.12;100;96010.74;;;;
2019/07/22 05:53:03;;;;;;;9.4;8.5;;;;;;;19.5;100;96026.28;;;;
2019/07/22 05:54:04;;;;;;;9.4;8.5;;;;;;;19.5;100;96026.28;;;;
2019/07/22 05:55:06;;;;;;;9.4;8.5;;;;;;;19.5;100;96026.28;;;;
2019/07/22 05:56:07;;;;;;;9.4;8.5;;;;;;;19.5;100;96026.28;;;;
2019/07/22 05:57:08;;;;;;;9.4;8.5;;;;;;;19.5;100;96026.28;;;;
2019/07/22 05:58:09;;;;;;;9.4;8.5;;;;;;;19.5;100;96026.28;;;;
2019/07/22 05:59:10;;;;;;;9.4;8.5;;;;;;;19.5;100;96026.28;;;;
2019/07/22 06:00:11;;;;;;;9.4;8.5;;;;;;;19.5;100;96026.28;;;;
2019/07/22 06:01:13;;;;;;;9.4;8.5;;;;;;;19.5;100;96026.28;;;;
2019/07/22 06:02:14;;;;;;;9.4;8.5;;;;;;;19.5;100;96026.28;;;;